Time;durP1;ratioP1;P1;durP2;ratioP2;P2;SDS_P1;SDS_P2;PMS_P1;PMS_P2;Temp;Humidity;BMP_temperature;BMP_pressure;BME280_temperature;BME280_humidity;BME280_pressure;Samples;Min_cycle;Max_cycle;Signal;HPM_P1;HPM_P2
2021/07/04 00:01:03;;;;;;;9.73;5.27;;;19.30;87.00;;;;;;5050388;28;20189;-76
2021/07/04 00:03:29;;;;;;;10.30;5.87;;;19.40;86.90;;;;;;5050861;28;20323;-74
2021/07/04 00:05:55;;;;;;;10.80;5.67;;;19.40;87.00;;;;;;5050839;28;20522;-74
2021/07/04 00:08:23;;;;;;;9.10;5.53;;;19.30;87.10;;;;;;5050174;28;20215;-75
2021/07/04 00:10:59;;;;;;;9.20;5.83;;;19.30;87.40;;;;;;5049477;28;20187;-75
2021/07/04 00:13:27;;;;;;;8.23;5.40;;;19.30;87.10;;;;;;5051086;28;20438;-74
2021/07/04 00:15:53;;;;;;;7.87;5.23;;;19.30;86.60;;;;;;5050086;28;20488;-76
2021/07/04 00:18:22;;;;;;;8.17;5.87;;;19.30;86.80;;;;;;5050798;28;20491;-75
2021/07/04 00:20:49;;;;;;;6.90;5.33;;;19.30;86.60;;;;;;5049597;28;20423;-74
2021/07/04 00:23:16;;;;;;;8.70;5.63;;;19.20;87.10;;;;;;5051405;28;20429;-76
2021/07/04 00:25:42;;;;;;;8.80;5.50;;;19.20;87.70;;;;;;5049027;28;20506;-76
2021/07/04 00:28:10;;;;;;;10.30;5.70;;;19.20;87.80;;;;;;5048680;28;20835;-76
2021/07/04 00:30:36;;;;;;;7.80;5.43;;;19.10;88.30;;;;;;5051001;28;20805;-77
2021/07/04 00:33:03;;;;;;;9.13;5.50;;;19.00;89.00;;;;;;5051756;28;20555;-76
2021/07/04 00:35:29;;;;;;;8.97;6.07;;;18.90;89.90;;;;;;5064144;28;20191;-77
2021/07/04 00:37:55;;;;;;;10.20;6.03;;;18.80;90.60;;;;;;5047507;28;20451;-76
2021/07/04 00:40:22;;;;;;;10.13;6.20;;;18.70;90.90;;;;;;5046168;28;20426;-75
2021/07/04 00:42:48;;;;;;;11.70;6.77;;;18.70;91.10;;;;;;5049157;28;20757;-75
2021/07/04 00:45:21;;;;;;;10.30;5.90;;;18.70;91.30;;;;;;5049406;28;20466;-74
2021/07/04 00:47:47;;;;;;;10.40;6.60;;;18.60;91.40;;;;;;5042400;28;20945;-75
2021/07/04 00:50:15;;;;;;;9.00;5.90;;;18.50;91.70;;;;;;5050034;28;20452;-75
2021/07/04 00:52:42;;;;;;;9.17;5.87;;;18.60;91.80;;;;;;5042587;28;20450;-75
2021/07/04 00:55:08;;;;;;;13.13;6.90;;;18.60;91.70;;;;;;5048182;28;20429;-75
2021/07/04 00:57:35;;;;;;;10.00;6.93;;;18.60;91.50;;;;;;5047671;28;20448;-73
2021/07/04 01:00:01;;;;;;;9.43;6.80;;;18.50;91.70;;;;;;5049448;28;20513;-73
2021/07/04 01:02:27;;;;;;;11.97;6.67;;;18.50;91.90;;;;;;5048877;28;20481;-73
2021/07/04 01:04:54;;;;;;;10.87;6.73;;;18.50;92.00;;;;;;5047906;28;21070;-73
2021/07/04 01:07:21;;;;;;;10.17;6.73;;;18.50;92.00;;;;;;5049529;28;20959;-74
2021/07/04 01:09:47;;;;;;;10.77;6.20;;;18.40;92.10;;;;;;5050373;28;20467;-73
2021/07/04 01:12:13;;;;;;;9.83;6.33;;;18.40;92.30;;;;;;5050280;28;20417;-73
2021/07/04 01:14:39;;;;;;;13.53;7.20;;;18.40;92.30;;;;;;5051692;28;20189;-73
2021/07/04 01:17:05;;;;;;;11.00;6.50;;;18.40;92.40;;;;;;5052279;28;20445;-75
2021/07/04 01:19:31;;;;;;;11.30;6.57;;;18.40;92.40;;;;;;5052673;28;20578;-73
2021/07/04 01:21:58;;;;;;;8.90;6.03;;;18.40;92.50;;;;;;5066900;28;20186;-73
2021/07/04 01:24:25;;;;;;;11.63;6.50;;;18.30;92.80;;;;;;5061496;28;20216;-73
2021/07/04 01:26:51;;;;;;;10.63;7.00;;;18.40;92.80;;;;;;5051965;28;20496;-74
2021/07/04 01:29:17;;;;;;;10.73;6.10;;;18.40;92.80;;;;;;5053644;28;20939;-73
2021/07/04 01:31:43;;;;;;;9.53;5.97;;;18.40;92.80;;;;;;5060121;28;20585;-73
2021/07/04 01:34:09;;;;;;;13.00;7.27;;;18.40;92.90;;;;;;5047796;28;20525;-74
2021/07/04 01:36:37;;;;;;;10.13;6.53;;;18.40;92.80;;;;;;5048217;28;20437;-75
2021/07/04 01:39:05;;;;;;;10.13;6.60;;;18.30;93.00;;;;;;5048182;28;20292;-74
2021/07/04 01:41:31;;;;;;;10.40;6.40;;;18.30;93.00;;;;;;5043703;28;20464;-74
2021/07/04 01:43:57;;;;;;;10.63;6.53;;;18.30;93.20;;;;;;5048112;28;20461;-73
2021/07/04 01:46:24;;;;;;;10.67;7.20;;;18.30;93.20;;;;;;5048027;28;20839;-73
2021/07/04 01:48:49;;;;;;;15.30;7.57;;;18.10;93.40;;;;;;5047613;28;20714;-74
2021/07/04 01:51:15;;;;;;;9.87;6.60;;;18.10;93.70;;;;;;5041537;28;20432;-72
2021/07/04 01:53:41;;;;;;;12.30;7.43;;;18.00;93.90;;;;;;5047051;28;20651;-74
2021/07/04 01:56:07;;;;;;;12.00;7.40;;;18.00;94.20;;;;;;5050794;28;20416;-74
2021/07/04 01:58:35;;;;;;;10.40;7.10;;;17.90;94.40;;;;;;5050247;28;20239;-73
2021/07/04 02:01:01;;;;;;;11.90;6.97;;;17.90;94.60;;;;;;5047581;28;20419;-73
2021/07/04 02:03:26;;;;;;;11.43;7.13;;;17.90;94.50;;;;;;5045071;28;20827;-73
2021/07/04 02:05:52;;;;;;;10.20;6.60;;;17.80;94.60;;;;;;5052532;28;20435;-72
2021/07/04 02:08:18;;;;;;;14.10;7.27;;;17.80;94.60;;;;;;5045537;28;20208;-74
2021/07/04 02:10:44;;;;;;;10.23;6.70;;;17.90;94.50;;;;;;5050305;28;20244;-74
2021/07/04 02:13:10;;;;;;;11.70;7.00;;;17.90;94.30;;;;;;5063135;28;20185;-72
2021/07/04 02:15:40;;;;;;;12.13;7.23;;;17.90;94.10;;;;;;5051169;28;20445;-73
2021/07/04 02:18:09;;;;;;;11.30;7.10;;;17.90;94.30;;;;;;5050138;28;20450;-74
2021/07/04 02:20:45;;;;;;;12.10;7.03;;;17.80;94.40;;;;;;5049455;28;20487;-72
2021/07/04 02:23:16;;;;;;;9.70;6.30;;;17.80;94.50;;;;;;5050202;28;20428;-73
2021/07/04 02:25:43;;;;;;;11.17;7.43;;;17.90;94.60;;;;;;5050104;28;20472;-73
2021/07/04 02:28:12;;;;;;;9.63;6.73;;;17.90;94.50;;;;;;5046808;28;20440;-73
2021/07/04 02:30:39;;;;;;;12.83;7.70;;;17.90;94.40;;;;;;5046507;28;20783;-73
2021/07/04 02:33:06;;;;;;;11.07;6.87;;;17.90;94.40;;;;;;5050269;28;20430;-72
2021/07/04 02:35:34;;;;;;;11.10;7.20;;;17.80;94.60;;;;;;5050036;28;20530;-71
2021/07/04 02:38:01;;;;;;;12.90;7.10;;;17.80;94.70;;;;;;5049883;28;20968;-74
2021/07/04 02:40:27;;;;;;;13.60;8.17;;;17.70;94.80;;;;;;5050040;28;20479;-74
2021/07/04 02:42:54;;;;;;;15.00;8.10;;;17.70;95.00;;;;;;5049203;28;20427;-72
2021/07/04 02:45:19;;;;;;;12.07;7.33;;;17.70;95.00;;;;;;5048077;28;20491;-73
2021/07/04 02:47:45;;;;;;;11.77;6.80;;;17.70;95.00;;;;;;5049609;28;20450;-73
2021/07/04 02:50:12;;;;;;;11.10;7.33;;;17.60;95.00;;;;;;5049420;28;20258;-75
2021/07/04 02:52:38;;;;;;;12.70;8.00;;;17.60;95.20;;;;;;5048589;28;20276;-73
2021/07/04 02:55:08;;;;;;;13.67;7.60;;;17.60;95.10;;;;;;5049144;28;20517;-73
2021/07/04 02:57:34;;;;;;;11.20;6.70;;;17.50;95.30;;;;;;5049424;28;20299;-73
2021/07/04 02:59:59;;;;;;;15.10;7.80;;;17.50;95.40;;;;;;5049570;28;21010;-72
2021/07/04 03:02:25;;;;;;;10.37;6.40;;;17.60;95.40;;;;;;5053397;28;20188;-73
2021/07/04 03:04:52;;;;;;;11.03;7.10;;;17.60;95.40;;;;;;5054410;28;20300;-74
2021/07/04 03:07:17;;;;;;;11.27;7.87;;;17.70;95.20;;;;;;5053867;28;20431;-73
2021/07/04 03:09:43;;;;;;;12.93;8.17;;;17.70;95.20;;;;;;5054080;28;20561;-72
2021/07/04 03:12:09;;;;;;;14.60;7.90;;;17.80;95.00;;;;;;5053461;28;20181;-72
2021/07/04 03:14:35;;;;;;;13.93;7.77;;;17.80;94.80;;;;;;5054497;28;20437;-72
2021/07/04 03:17:02;;;;;;;13.77;7.90;;;17.90;94.70;;;;;;5052868;28;20534;-72
2021/07/04 03:19:27;;;;;;;12.47;7.67;;;17.90;94.70;;;;;;5053183;28;20186;-74
2021/07/04 03:21:53;;;;;;;12.77;7.80;;;17.90;94.70;;;;;;5053535;28;20441;-74
2021/07/04 03:24:19;;;;;;;15.20;8.03;;;17.80;94.70;;;;;;5053920;28;20206;-72
2021/07/04 03:26:44;;;;;;;11.93;7.90;;;17.80;94.80;;;;;;5053833;28;20278;-73
2021/07/04 03:29:10;;;;;;;14.77;7.77;;;17.80;94.80;;;;;;5054381;28;20182;-72
2021/07/04 03:31:36;;;;;;;11.33;7.63;;;17.80;94.90;;;;;;5053598;28;20176;-73
2021/07/04 03:34:02;;;;;;;14.60;8.07;;;17.90;94.60;;;;;;5053983;28;20664;-73
2021/07/04 03:36:28;;;;;;;12.60;7.10;;;17.90;94.40;;;;;;5053510;28;20246;-73
2021/07/04 03:38:53;;;;;;;13.80;6.90;;;18.00;94.20;;;;;;5052188;28;20206;-73
2021/07/04 03:41:19;;;;;;;11.30;7.87;;;18.00;94.20;;;;;;5052690;28;20184;-76
2021/07/04 03:43:45;;;;;;;11.47;6.70;;;18.00;94.20;;;;;;5051862;28;20647;-73
2021/07/04 03:46:11;;;;;;;13.97;8.30;;;18.00;94.10;;;;;;5053858;28;20181;-73
2021/07/04 03:48:36;;;;;;;12.77;7.23;;;18.00;94.20;;;;;;5053708;28;20570;-73
2021/07/04 03:51:02;;;;;;;10.73;7.10;;;18.10;94.00;;;;;;5052275;28;20194;-72
2021/07/04 03:53:28;;;;;;;10.03;7.07;;;18.10;94.00;;;;;;5053918;28;20640;-72
2021/07/04 03:55:54;;;;;;;15.10;7.43;;;18.20;94.00;;;;;;5053655;28;20603;-72
2021/07/04 03:58:21;;;;;;;10.23;7.07;;;18.30;93.70;;;;;;5053550;28;20449;-74
2021/07/04 04:00:46;;;;;;;8.53;6.30;;;18.40;93.50;;;;;;5052993;28;20184;-72
2021/07/04 04:03:12;;;;;;;8.70;6.50;;;18.40;93.30;;;;;;5053736;28;20433;-74
2021/07/04 04:05:38;;;;;;;12.83;7.50;;;18.50;93.10;;;;;;5053727;28;20214;-73
2021/07/04 04:08:06;;;;;;;11.00;7.57;;;18.60;93.00;;;;;;5053757;28;20203;-73
2021/07/04 04:10:32;;;;;;;8.97;6.47;;;18.60;93.00;;;;;;5053551;28;20177;-76
2021/07/04 04:12:58;;;;;;;11.43;6.63;;;18.70;92.50;;;;;;5045164;28;20430;-72
2021/07/04 04:15:24;;;;;;;13.67;7.93;;;18.80;92.30;;;;;;5053723;28;20868;-72
2021/07/04 04:17:49;;;;;;;13.57;6.90;;;18.90;92.00;;;;;;5052169;28;20210;-72
2021/07/04 04:20:15;;;;;;;13.80;7.10;;;18.90;92.00;;;;;;5053835;28;20189;-76
2021/07/04 04:22:41;;;;;;;8.80;5.90;;;19.00;91.70;;;;;;5051477;28;20209;-73
2021/07/04 04:25:08;;;;;;;12.10;7.33;;;19.10;91.30;;;;;;5053521;28;20700;-73
2021/07/04 04:27:33;;;;;;;11.83;6.90;;;19.10;90.80;;;;;;5053057;28;20454;-72
2021/07/04 04:29:59;;;;;;;10.03;6.97;;;19.20;90.80;;;;;;5054218;28;20427;-72
2021/07/04 04:32:25;;;;;;;11.17;6.60;;;19.20;90.70;;;;;;5054816;28;20587;-73
2021/07/04 04:34:51;;;;;;;9.93;7.00;;;19.20;90.60;;;;;;5054891;28;20204;-73
2021/07/04 04:37:17;;;;;;;10.77;7.30;;;19.20;90.30;;;;;;5057672;28;20212;-74
2021/07/04 04:39:42;;;;;;;8.80;6.90;;;19.20;90.40;;;;;;5053715;28;20269;-73
2021/07/04 04:42:08;;;;;;;10.80;7.00;;;19.00;90.70;;;;;;5059378;28;20187;-74
2021/07/04 04:44:35;;;;;;;12.97;6.23;;;18.90;91.10;;;;;;5061257;28;20690;-73
2021/07/04 04:47:01;;;;;;;11.67;6.70;;;18.90;91.20;;;;;;5052088;28;20226;-72
2021/07/04 04:49:27;;;;;;;9.47;6.47;;;18.90;91.30;;;;;;5052915;28;20415;-76
2021/07/04 04:51:53;;;;;;;10.13;7.10;;;18.90;91.30;;;;;;5052217;28;20417;-72
2021/07/04 04:54:19;;;;;;;14.93;8.10;;;19.00;91.20;;;;;;5052894;28;20193;-72
2021/07/04 04:56:45;;;;;;;13.10;6.43;;;19.00;90.90;;;;;;5053220;28;20244;-72
2021/07/04 04:59:11;;;;;;;8.60;5.60;;;19.00;91.10;;;;;;5052789;28;20188;-73
2021/07/04 05:01:37;;;;;;;8.30;6.07;;;19.00;90.80;;;;;;5050679;28;20428;-72
2021/07/04 05:04:02;;;;;;;7.67;5.80;;;19.10;90.30;;;;;;5052389;28;20628;-75
2021/07/04 05:06:28;;;;;;;9.77;6.47;;;19.10;90.20;;;;;;5052942;28;20186;-72
2021/07/04 05:08:54;;;;;;;9.07;6.10;;;19.10;90.30;;;;;;5052767;28;20539;-73
2021/07/04 05:11:20;;;;;;;12.50;7.40;;;19.10;90.20;;;;;;5067228;28;20643;-73
2021/07/04 05:13:45;;;;;;;8.60;5.60;;;19.00;90.50;;;;;;5049532;28;20261;-75
2021/07/04 05:16:11;;;;;;;9.83;6.10;;;19.10;90.80;;;;;;5051370;28;20267;-72
2021/07/04 05:18:37;;;;;;;9.80;6.10;;;19.20;90.70;;;;;;5051114;28;20720;-72
2021/07/04 05:21:03;;;;;;;9.53;6.40;;;19.30;90.40;;;;;;5044909;28;20212;-72
2021/07/04 05:23:29;;;;;;;10.40;6.37;;;19.40;90.00;;;;;;5049541;28;20185;-73
2021/07/04 05:25:58;;;;;;;10.20;6.37;;;19.40;90.00;;;;;;5050884;28;20465;-73
2021/07/04 05:28:25;;;;;;;10.50;6.30;;;19.50;90.20;;;;;;5052610;28;20441;-71
2021/07/04 05:30:51;;;;;;;10.73;6.30;;;19.50;89.70;;;;;;5052433;28;20436;-73
2021/07/04 05:33:17;;;;;;;11.60;6.63;;;19.60;89.50;;;;;;5051188;28;20809;-73
2021/07/04 05:35:43;;;;;;;9.43;6.53;;;19.60;89.50;;;;;;5050648;28;20226;-72
2021/07/04 05:38:22;;;;;;;11.43;6.60;;;19.60;89.60;;;;;;5050573;28;20556;-71
2021/07/04 05:40:49;;;;;;;12.13;7.03;;;19.60;89.90;;;;;;5049826;28;20708;-73
2021/07/04 05:43:16;;;;;;;8.13;6.23;;;19.60;90.00;;;;;;5044955;28;21184;-73
2021/07/04 05:45:41;;;;;;;11.80;6.57;;;19.70;89.70;;;;;;5050715;28;20505;-74
2021/07/04 05:48:07;;;;;;;9.70;6.40;;;19.80;89.20;;;;;;5050931;28;20505;-72
2021/07/04 05:50:33;;;;;;;9.03;6.30;;;19.90;89.00;;;;;;5050483;28;20192;-72
2021/07/04 05:52:59;;;;;;;11.53;6.40;;;20.00;88.10;;;;;;5044525;28;20193;-72
2021/07/04 05:55:25;;;;;;;10.60;6.23;;;20.10;88.10;;;;;;5054226;28;20428;-72
2021/07/04 05:57:51;;;;;;;9.33;6.77;;;20.10;88.10;;;;;;5049513;28;20287;-73
2021/07/04 06:00:17;;;;;;;12.53;6.20;;;20.10;87.30;;;;;;5054883;28;20195;-76
2021/07/04 06:02:42;;;;;;;9.93;6.77;;;20.20;87.00;;;;;;5054442;28;20188;-75
2021/07/04 06:05:08;;;;;;;9.70;6.27;;;20.30;86.80;;;;;;5053374;28;20466;-71
2021/07/04 06:07:35;;;;;;;9.67;6.43;;;20.30;85.90;;;;;;5048959;28;20694;-72
2021/07/04 06:10:02;;;;;;;10.07;6.57;;;20.30;86.00;;;;;;5050893;28;20428;-72
2021/07/04 06:12:28;;;;;;;10.17;7.03;;;20.20;86.20;;;;;;5050068;28;20822;-72
2021/07/04 06:14:54;;;;;;;7.50;5.63;;;20.20;86.50;;;;;;5052850;28;20431;-74
2021/07/04 06:17:19;;;;;;;10.93;6.97;;;20.20;86.30;;;;;;5052729;28;20589;-72
2021/07/04 06:19:45;;;;;;;8.70;6.07;;;20.00;86.60;;;;;;5050787;28;20258;-73
2021/07/04 06:22:11;;;;;;;11.80;6.20;;;19.90;87.60;;;;;;5050840;28;20192;-74
2021/07/04 06:24:36;;;;;;;8.40;6.27;;;19.90;87.70;;;;;;5049545;28;20662;-72
2021/07/04 06:27:02;;;;;;;10.20;6.97;;;19.90;88.00;;;;;;5051533;28;21938;-75
2021/07/04 06:29:28;;;;;;;10.47;6.40;;;19.90;88.00;;;;;;5050352;28;20181;-72
2021/07/04 06:31:54;;;;;;;10.33;6.80;;;19.80;88.10;;;;;;5049773;28;20418;-73
2021/07/04 06:34:19;;;;;;;8.60;6.00;;;19.80;88.30;;;;;;5050154;28;20573;-72
2021/07/04 06:36:45;;;;;;;8.37;5.53;;;19.90;88.30;;;;;;5050095;28;20538;-74
2021/07/04 06:39:11;;;;;;;8.97;6.80;;;20.00;88.00;;;;;;5049752;28;20180;-75
2021/07/04 06:41:37;;;;;;;9.80;6.70;;;20.20;87.40;;;;;;5045380;28;20270;-72
2021/07/04 06:44:02;;;;;;;9.37;5.90;;;20.30;86.90;;;;;;5050485;28;20213;-73
2021/07/04 06:46:28;;;;;;;9.20;6.43;;;20.40;86.20;;;;;;5050499;28;20190;-73
2021/07/04 06:48:54;;;;;;;10.00;6.80;;;20.50;85.90;;;;;;5050260;28;20236;-75
2021/07/04 06:51:20;;;;;;;8.93;6.13;;;20.50;85.60;;;;;;5049906;28;20222;-73
2021/07/04 06:53:46;;;;;;;8.40;6.53;;;20.60;85.00;;;;;;5052760;28;20180;-74
2021/07/04 06:56:11;;;;;;;8.70;6.30;;;20.70;84.90;;;;;;5053260;28;20185;-72
2021/07/04 06:58:37;;;;;;;9.97;6.10;;;20.70;84.70;;;;;;5051448;28;20283;-73
2021/07/04 07:01:03;;;;;;;10.13;6.33;;;20.70;84.90;;;;;;5053158;28;20504;-74
2021/07/04 07:03:29;;;;;;;9.40;6.77;;;20.70;84.30;;;;;;5055453;28;20189;-73
2021/07/04 07:05:55;;;;;;;10.37;6.50;;;20.60;84.30;;;;;;5055744;28;20574;-74
2021/07/04 07:08:21;;;;;;;10.03;6.50;;;20.70;84.00;;;;;;5047132;28;20233;-73
2021/07/04 07:10:47;;;;;;;10.07;6.20;;;20.70;84.00;;;;;;5049142;28;20186;-74
2021/07/04 07:13:12;;;;;;;8.80;6.07;;;20.80;83.70;;;;;;5049381;28;20189;-74
2021/07/04 07:15:38;;;;;;;10.00;6.40;;;20.80;83.10;;;;;;5046992;28;20213;-73
2021/07/04 07:18:04;;;;;;;11.33;6.13;;;20.90;83.00;;;;;;5048340;28;20743;-75
2021/07/04 07:20:30;;;;;;;14.10;6.53;;;21.20;81.50;;;;;;5048962;28;20193;-71
2021/07/04 07:22:55;;;;;;;11.30;6.70;;;21.40;81.80;;;;;;5048254;28;20183;-72
2021/07/04 07:25:21;;;;;;;9.70;6.70;;;21.50;81.70;;;;;;5045007;28;20211;-74
2021/07/04 07:27:47;;;;;;;10.03;6.90;;;21.50;81.70;;;;;;5047857;28;20264;-72
2021/07/04 07:30:14;;;;;;;11.17;7.27;;;21.50;81.10;;;;;;5056828;28;20211;-73
2021/07/04 07:32:40;;;;;;;10.70;7.00;;;21.50;80.80;;;;;;5050484;28;20192;-72
2021/07/04 07:35:08;;;;;;;8.33;5.90;;;21.50;80.80;;;;;;5041824;28;20453;-71
2021/07/04 07:37:35;;;;;;;9.17;5.57;;;21.70;80.50;;;;;;5050753;28;20258;-73
2021/07/04 07:40:02;;;;;;;10.10;7.07;;;21.90;79.70;;;;;;5050668;28;20437;-72
2021/07/04 07:42:28;;;;;;;10.70;5.90;;;22.10;77.70;;;;;;5043865;28;20433;-73
2021/07/04 07:44:53;;;;;;;7.40;5.50;;;22.30;78.00;;;;;;5049033;28;20493;-74
2021/07/04 07:47:19;;;;;;;8.53;6.50;;;22.40;76.40;;;;;;5044233;28;20446;-72
2021/07/04 07:49:45;;;;;;;9.23;6.17;;;22.50;75.50;;;;;;5051284;28;20225;-72
2021/07/04 07:52:11;;;;;;;10.07;6.00;;;22.50;75.50;;;;;;5051127;28;20479;-73
2021/07/04 07:54:37;;;;;;;8.07;6.20;;;22.50;76.10;;;;;;5051411;28;20273;-73
2021/07/04 07:57:05;;;;;;;9.33;6.13;;;22.50;76.40;;;;;;5051484;28;20208;-72
2021/07/04 07:59:32;;;;;;;8.40;6.23;;;22.50;76.40;;;;;;5054413;28;20429;-73
2021/07/04 08:01:58;;;;;;;9.57;6.20;;;22.50;75.80;;;;;;5050693;28;20426;-74
2021/07/04 08:04:25;;;;;;;7.83;5.50;;;22.50;76.40;;;;;;5053083;28;20473;-73
2021/07/04 08:06:50;;;;;;;8.50;6.03;;;22.60;76.50;;;;;;5052040;28;20494;-73
2021/07/04 08:09:17;;;;;;;8.77;6.30;;;22.70;76.40;;;;;;5053072;28;20429;-73
2021/07/04 08:11:43;;;;;;;8.97;6.33;;;22.50;76.40;;;;;;5048469;28;20422;-73
2021/07/04 08:14:09;;;;;;;9.47;6.20;;;22.50;77.00;;;;;;5051341;28;20424;-72
2021/07/04 08:16:35;;;;;;;9.10;6.60;;;22.50;76.70;;;;;;5047243;28;20764;-73
2021/07/04 08:19:01;;;;;;;11.70;7.10;;;22.50;76.80;;;;;;5051950;28;20450;-73
2021/07/04 08:21:28;;;;;;;10.50;6.27;;;22.60;76.70;;;;;;5047384;28;20643;-71
2021/07/04 08:23:54;;;;;;;12.73;8.30;;;22.60;77.00;;;;;;5052719;28;20189;-73
2021/07/04 08:26:20;;;;;;;6.03;5.23;;;22.70;77.00;;;;;;5053520;28;20766;-70
2021/07/04 08:28:46;;;;;;;8.33;6.10;;;22.80;75.50;;;;;;5052833;28;20461;-72
2021/07/04 08:31:12;;;;;;;8.00;6.20;;;22.90;75.70;;;;;;5052145;28;20196;-72
2021/07/04 08:33:38;;;;;;;8.80;6.47;;;22.70;74.80;;;;;;5053190;28;20199;-73
2021/07/04 08:36:04;;;;;;;7.60;6.20;;;22.60;75.10;;;;;;5053504;28;20275;-71
2021/07/04 08:38:29;;;;;;;9.27;6.73;;;22.70;75.50;;;;;;5053308;28;20290;-72
2021/07/04 08:40:55;;;;;;;8.67;5.60;;;22.90;74.30;;;;;;5052224;28;20526;-71
2021/07/04 08:43:26;;;;;;;17.10;11.17;;;23.00;73.00;;;;;;5052873;28;20659;-72
2021/07/04 08:45:53;;;;;;;8.57;5.63;;;23.00;73.00;;;;;;5052114;28;20699;-72
2021/07/04 08:48:18;;;;;;;8.90;5.90;;;23.10;72.70;;;;;;5049824;28;20834;-72
2021/07/04 08:50:45;;;;;;;10.57;7.43;;;23.30;71.40;;;;;;5047274;28;20421;-72
2021/07/04 08:53:10;;;;;;;9.70;6.10;;;23.50;71.60;;;;;;5045733;28;20187;-72
2021/07/04 08:55:36;;;;;;;9.40;6.90;;;23.60;71.70;;;;;;5053510;28;20423;-72
2021/07/04 08:58:02;;;;;;;7.53;6.00;;;23.60;72.10;;;;;;5052416;28;20684;-73
2021/07/04 09:00:28;;;;;;;9.20;6.03;;;23.50;71.00;;;;;;5043764;28;20182;-74
2021/07/04 09:02:54;;;;;;;8.13;6.00;;;23.50;71.40;;;;;;5050906;28;20202;-75
2021/07/04 09:05:20;;;;;;;9.67;5.33;;;23.80;71.30;;;;;;5052671;28;20473;-70
2021/07/04 09:07:46;;;;;;;10.43;5.83;;;24.10;68.90;;;;;;5052422;28;20671;-72
2021/07/04 09:10:20;;;;;;;8.50;5.67;;;24.30;67.30;;;;;;5051440;28;20429;-72
2021/07/04 09:12:51;;;;;;;8.90;5.53;;;24.50;67.50;;;;;;5051913;28;20413;-72
2021/07/04 09:15:30;;;;;;;8.03;5.60;;;24.40;66.10;;;;;;5053540;28;20448;-73
2021/07/04 09:17:57;;;;;;;7.80;5.07;;;24.40;67.00;;;;;;5052990;28;20468;-70
2021/07/04 09:20:29;;;;;;;6.63;5.60;;;24.10;67.60;;;;;;5051516;28;20433;-70
2021/07/04 09:22:56;;;;;;;8.93;5.90;;;24.10;68.80;;;;;;5051967;28;20437;-72
2021/07/04 09:25:24;;;;;;;8.83;5.77;;;24.10;68.00;;;;;;5054423;28;20470;-71
2021/07/04 09:28:08;;;;;;;7.40;6.00;;;24.10;66.60;;;;;;5053366;28;20452;-73
2021/07/04 09:30:46;;;;;;;8.10;5.30;;;24.10;68.00;;;;;;5051888;28;20424;-72
2021/07/04 09:33:16;;;;;;;8.30;5.67;;;24.20;68.30;;;;;;5049569;28;20452;-72
2021/07/04 09:35:56;;;;;;;7.93;5.17;;;24.20;68.60;;;;;;5051334;28;20438;-71
2021/07/04 09:38:24;;;;;;;8.50;5.10;;;24.20;67.70;;;;;;5046559;28;20536;-73
2021/07/04 09:40:51;;;;;;;25.87;5.77;;;24.20;67.50;;;;;;5050835;28;20912;-74
2021/07/04 09:43:18;;;;;;;13.77;5.27;;;24.20;66.10;;;;;;5056302;28;20494;-76
2021/07/04 09:45:48;;;;;;;11.53;5.10;;;24.30;66.40;;;;;;5054422;28;20505;-78
2021/07/04 09:48:20;;;;;;;6.30;4.17;;;24.40;65.30;;;;;;5054604;28;20432;-73
2021/07/04 09:50:49;;;;;;;6.40;4.20;;;24.20;64.80;;;;;;5049434;28;20425;-74
2021/07/04 09:53:18;;;;;;;29.93;6.00;;;24.20;65.40;;;;;;5051232;28;20439;-77
2021/07/04 09:55:44;;;;;;;29.63;6.77;;;24.50;65.10;;;;;;5054551;28;20434;-77
2021/07/04 09:58:12;;;;;;;7.20;5.07;;;24.80;64.40;;;;;;5057314;28;21115;-76
2021/07/04 10:00:41;;;;;;;7.93;5.00;;;25.10;64.20;;;;;;5053328;28;20750;-77
2021/07/04 10:03:21;;;;;;;5.47;4.80;;;25.40;63.80;;;;;;5051853;28;20457;-70
2021/07/04 10:05:53;;;;;;;7.73;5.37;;;25.60;63.50;;;;;;5050406;28;20475;-72
2021/07/04 10:08:21;;;;;;;11.67;5.80;;;25.90;62.50;;;;;;5055869;28;20621;-74
2021/07/04 10:10:47;;;;;;;7.10;5.60;;;26.10;61.70;;;;;;5066908;28;20433;-75
2021/07/04 10:13:13;;;;;;;6.73;5.00;;;25.90;60.30;;;;;;5067045;28;20432;-74
2021/07/04 10:15:41;;;;;;;8.93;5.60;;;26.00;60.30;;;;;;5066530;28;20425;-76
2021/07/04 10:18:11;;;;;;;6.33;4.97;;;25.90;60.90;;;;;;5063540;28;20581;-77
2021/07/04 10:20:38;;;;;;;5.93;4.70;;;26.30;60.00;;;;;;5045767;28;20492;-76
2021/07/04 10:23:09;;;;;;;6.30;4.70;;;26.20;60.00;;;;;;5052213;28;20430;-79
2021/07/04 10:25:35;;;;;;;6.63;5.20;;;26.40;59.30;;;;;;5051395;28;20465;-76
2021/07/04 10:28:03;;;;;;;10.47;4.43;;;26.60;58.80;;;;;;5044931;28;20441;-73
2021/07/04 10:30:30;;;;;;;8.20;4.50;;;26.40;57.80;;;;;;5053038;28;20605;-75
2021/07/04 10:33:07;;;;;;;6.20;3.77;;;25.80;59.50;;;;;;5051290;28;20499;-74
2021/07/04 10:35:33;;;;;;;7.37;4.30;;;25.40;59.70;;;;;;5051686;28;20953;-75
2021/07/04 10:38:14;;;;;;;6.40;4.47;;;25.50;60.40;;;;;;5048673;28;20950;-74
2021/07/04 10:40:40;;;;;;;5.70;4.40;;;25.70;60.90;;;;;;5049533;28;20469;-74
2021/07/04 10:43:07;;;;;;;5.73;4.53;;;25.80;60.40;;;;;;5053385;28;20428;-74
2021/07/04 10:45:35;;;;;;;4.80;3.63;;;25.40;62.20;;;;;;5052794;28;20465;-74
2021/07/04 10:48:24;;;;;;;7.10;4.93;;;24.70;61.00;;;;;;5051329;28;20982;-74
2021/07/04 10:51:08;;;;;;;7.63;4.27;;;24.20;62.90;;;;;;5049789;28;20487;-76
2021/07/04 10:53:42;;;;;;;8.20;4.90;;;24.20;63.70;;;;;;5048925;28;20460;-76
2021/07/04 10:56:33;;;;;;;6.43;4.40;;;24.30;63.90;;;;;;5050727;28;20529;-74
2021/07/04 10:59:04;;;;;;;7.70;4.60;;;24.30;62.60;;;;;;5050424;28;20447;-77
2021/07/04 11:01:48;;;;;;;6.87;4.43;;;24.20;63.40;;;;;;5050057;28;20429;-76
2021/07/04 11:04:32;;;;;;;6.33;4.60;;;24.00;64.40;;;;;;5050207;28;20463;-77
2021/07/04 11:07:03;;;;;;;7.30;4.70;;;23.80;65.40;;;;;;5051066;28;20489;-76
2021/07/04 11:09:58;;;;;;;9.07;5.10;;;23.90;65.70;;;;;;5050750;28;20421;-76
2021/07/04 11:12:34;;;;;;;8.27;5.23;;;24.10;65.60;;;;;;5045176;28;21021;-77
2021/07/04 11:15:26;;;;;;;6.57;5.00;;;24.20;66.30;;;;;;5050249;28;20919;-77
2021/07/04 11:18:01;;;;;;;6.33;4.40;;;24.10;65.40;;;;;;5057771;28;20528;-74
2021/07/04 11:20:39;;;;;;;6.67;5.20;;;24.10;65.60;;;;;;5055107;28;20422;-76
2021/07/04 11:23:10;;;;;;;6.10;4.70;;;24.20;66.90;;;;;;5053535;28;20417;-77
2021/07/04 11:25:45;;;;;;;6.17;4.93;;;24.30;65.30;;;;;;5054210;28;20494;-76
2021/07/04 11:28:19;;;;;;;6.63;5.23;;;24.50;64.80;;;;;;5064075;28;20901;-76
2021/07/04 11:30:45;;;;;;;8.93;5.03;;;24.90;64.20;;;;;;5059828;28;20483;-77
2021/07/04 11:33:36;;;;;;;12.43;5.93;;;25.20;62.60;;;;;;5055155;28;20443;-77
2021/07/04 11:36:07;;;;;;;7.17;5.13;;;25.40;62.00;;;;;;5052476;28;20432;-77
2021/07/04 11:38:40;;;;;;;6.20;4.63;;;25.60;60.10;;;;;;5050898;28;21113;-77
2021/07/04 11:41:18;;;;;;;8.37;4.87;;;25.60;59.90;;;;;;5051738;28;20449;-77
2021/07/04 11:43:44;;;;;;;6.40;4.47;;;25.30;60.60;;;;;;5052087;28;20444;-77
2021/07/04 11:46:15;;;;;;;6.33;4.73;;;25.30;61.20;;;;;;5048853;28;20839;-75
2021/07/04 11:48:56;;;;;;;6.10;4.50;;;25.40;61.30;;;;;;5051873;28;20518;-78
2021/07/04 11:51:30;;;;;;;5.77;4.43;;;25.30;61.00;;;;;;5053317;28;20743;-74
2021/07/04 11:54:05;;;;;;;6.73;4.27;;;25.30;62.20;;;;;;5053665;28;20407;-75
2021/07/04 11:56:32;;;;;;;7.00;5.30;;;25.40;62.30;;;;;;5053604;28;20422;-76
2021/07/04 11:59:25;;;;;;;5.97;4.73;;;25.40;61.50;;;;;;5049817;28;20491;-75
2021/07/04 12:01:59;;;;;;;7.27;5.23;;;25.30;61.90;;;;;;5060280;28;20416;-75
2021/07/04 12:04:29;;;;;;;6.77;4.70;;;25.30;61.30;;;;;;5057807;28;20457;-76
2021/07/04 12:07:02;;;;;;;8.17;5.33;;;24.80;63.70;;;;;;5065768;28;20426;-76
2021/07/04 12:09:40;;;;;;;5.93;4.80;;;24.80;63.90;;;;;;5068262;28;20419;-75
2021/07/04 12:12:33;;;;;;;8.10;5.20;;;24.80;64.50;;;;;;5059758;28;20422;-76
2021/07/04 12:15:02;;;;;;;8.07;5.07;;;24.90;63.40;;;;;;5071795;28;20443;-74
2021/07/04 12:17:31;;;;;;;6.57;4.63;;;24.90;63.80;;;;;;5056605;28;20446;-76
2021/07/04 12:20:08;;;;;;;8.50;5.93;;;25.10;63.70;;;;;;5053679;28;20875;-76
2021/07/04 12:22:54;;;;;;;7.80;5.67;;;25.20;63.10;;;;;;5053653;28;20419;-78
2021/07/04 12:25:26;;;;;;;6.57;4.80;;;25.10;63.20;;;;;;5053899;28;21136;-78
2021/07/04 12:27:54;;;;;;;8.40;5.77;;;25.10;63.90;;;;;;5054113;28;20436;-78
2021/07/04 12:30:21;;;;;;;7.53;5.30;;;25.20;63.70;;;;;;5053703;28;20445;-77
2021/07/04 12:32:53;;;;;;;7.13;5.17;;;25.30;62.50;;;;;;5052596;28;20432;-77
2021/07/04 12:35:19;;;;;;;7.53;5.00;;;25.40;63.10;;;;;;5053677;28;20506;-78
2021/07/04 12:37:45;;;;;;;7.33;5.90;;;25.60;61.20;;;;;;5053089;28;20439;-78
2021/07/04 12:40:17;;;;;;;6.10;5.00;;;25.90;61.50;;;;;;5053895;28;20184;-78
2021/07/04 12:42:44;;;;;;;8.10;4.97;;;26.20;60.30;;;;;;5051269;28;20426;-76
2021/07/04 12:45:13;;;;;;;8.47;5.20;;;26.10;58.70;;;;;;5053035;28;20469;-78
2021/07/04 12:47:40;;;;;;;7.10;5.37;;;25.90;58.90;;;;;;5052749;28;21001;-74